Time;durP1;ratioP1;P1;durP2;ratioP2;P2;SDS_P1;SDS_P2;PMS_P1;PMS_P2;Temp;Humidity;BMP_temperature;BMP_pressure;BME280_temperature;BME280_humidity;BME280_pressure;Samples;Min_cycle;Max_cycle;Signal;HPM_P1;HPM_P2
2022/09/22 00:01:36;;;;;;;4.93;2.55;;;11.20;99.90;;;;;;5097299;28;20115;-72
2022/09/22 00:04:05;;;;;;;5.70;2.47;;;11.10;99.90;;;;;;5130314;27;20052;-72
2022/09/22 00:06:38;;;;;;;7.38;2.60;;;11.10;99.90;;;;;;5097171;28;20040;-72
2022/09/22 00:09:05;;;;;;;4.75;2.70;;;11.10;99.90;;;;;;5095874;28;20348;-72
2022/09/22 00:11:35;;;;;;;5.15;2.35;;;11.00;99.90;;;;;;5097261;28;20290;-72
2022/09/22 00:14:07;;;;;;;5.05;2.50;;;11.10;99.90;;;;;;5097119;28;20039;-72
2022/09/22 00:16:44;;;;;;;6.90;2.53;;;11.10;99.90;;;;;;5095901;28;20036;-73
2022/09/22 00:19:13;;;;;;;6.70;2.47;;;11.00;99.90;;;;;;5129694;27;20337;-72
2022/09/22 00:21:39;;;;;;;5.93;2.40;;;11.00;99.90;;;;;;5096596;28;20072;-72
2022/09/22 00:24:06;;;;;;;6.38;2.47;;;11.10;99.90;;;;;;5130223;27;20072;-72
2022/09/22 00:26:34;;;;;;;5.25;2.55;;;11.00;99.90;;;;;;5097163;28;20112;-72
2022/09/22 00:29:00;;;;;;;3.90;2.10;;;11.00;99.90;;;;;;5097188;28;20110;-72
2022/09/22 00:31:27;;;;;;;5.50;2.50;;;11.00;99.90;;;;;;5095971;28;20059;-72
2022/09/22 00:33:54;;;;;;;6.20;2.85;;;11.00;99.90;;;;;;5078478;28;20076;-72
2022/09/22 00:36:22;;;;;;;6.15;2.55;;;10.80;99.90;;;;;;5096915;28;20111;-72
2022/09/22 00:38:50;;;;;;;4.32;2.25;;;10.90;99.90;;;;;;5130048;27;20440;-72
2022/09/22 00:41:18;;;;;;;5.45;2.58;;;11.00;99.90;;;;;;5129696;27;20040;-72
2022/09/22 00:43:48;;;;;;;6.30;2.67;;;11.00;99.90;;;;;;5095039;28;20178;-72
2022/09/22 00:46:27;;;;;;;5.18;2.30;;;11.00;99.90;;;;;;5096736;28;20232;-73
2022/09/22 00:49:02;;;;;;;5.10;2.20;;;11.00;99.90;;;;;;5095249;28;20039;-72
2022/09/22 00:51:33;;;;;;;3.55;2.30;;;11.00;99.90;;;;;;5096891;28;20044;-72
2022/09/22 00:54:03;;;;;;;6.47;2.50;;;11.00;99.90;;;;;;5096558;28;20040;-72
2022/09/22 00:56:48;;;;;;;7.53;2.50;;;10.90;99.90;;;;;;5096559;28;20444;-72
2022/09/22 00:59:18;;;;;;;3.47;2.22;;;10.90;99.90;;;;;;5096657;28;20044;-72
2022/09/22 01:01:47;;;;;;;6.13;2.22;;;10.80;99.90;;;;;;5095508;28;20115;-72
2022/09/22 01:04:13;;;;;;;5.75;2.05;;;10.70;99.90;;;;;;5096488;28;20459;-72
2022/09/22 01:06:40;;;;;;;4.72;1.92;;;10.70;99.90;;;;;;5129549;28;20082;-72
2022/09/22 01:09:07;;;;;;;5.63;2.30;;;10.80;99.90;;;;;;5095319;28;20107;-72
2022/09/22 01:11:33;;;;;;;4.25;2.17;;;10.70;99.90;;;;;;5096682;28;20302;-72
2022/09/22 01:14:24;;;;;;;4.80;2.20;;;10.70;99.90;;;;;;5096344;28;20123;-72
2022/09/22 01:16:52;;;;;;;3.97;2.35;;;10.70;99.90;;;;;;5129478;28;20040;-72
2022/09/22 01:20:03;;;;;;;4.60;2.30;;;10.70;99.90;;;;;;5129396;28;20452;-72
2022/09/22 01:22:54;;;;;;;3.72;2.15;;;10.70;99.90;;;;;;5129495;28;20094;-72
2022/09/22 01:25:44;;;;;;;5.63;2.10;;;10.70;99.90;;;;;;5129492;28;20058;-72
2022/09/22 01:28:41;;;;;;;4.32;2.03;;;10.70;99.90;;;;;;5096553;28;20096;-72
2022/09/22 01:31:19;;;;;;;5.07;2.25;;;10.80;99.90;;;;;;5095262;28;20086;-72
2022/09/22 01:34:10;;;;;;;3.00;1.55;;;10.70;99.90;;;;;;5095035;28;20433;-72
2022/09/22 01:37:11;;;;;;;4.80;2.00;;;10.70;99.90;;;;;;5096521;28;20032;-72
2022/09/22 01:39:59;;;;;;;5.57;1.80;;;10.60;99.90;;;;;;5096488;28;20036;-73
2022/09/22 01:43:05;;;;;;;7.95;2.10;;;10.70;99.90;;;;;;5095502;28;20055;-72
2022/09/22 01:45:34;;;;;;;3.85;1.90;;;10.70;99.90;;;;;;5064675;28;20131;-72
2022/09/22 01:48:08;;;;;;;3.13;1.80;;;10.60;99.90;;;;;;5094679;28;20121;-72
2022/09/22 01:51:13;;;;;;;3.40;1.70;;;10.60;99.90;;;;;;5096407;28;20066;-72
2022/09/22 01:53:45;;;;;;;4.95;1.77;;;10.60;99.90;;;;;;5061537;28;20086;-72
2022/09/22 01:56:13;;;;;;;5.85;2.00;;;10.60;99.90;;;;;;5131380;27;20433;-72
2022/09/22 01:58:44;;;;;;;5.40;1.73;;;10.60;99.90;;;;;;5081338;28;20048;-72
2022/09/22 02:01:15;;;;;;;4.63;2.08;;;10.50;99.90;;;;;;5132685;27;20127;-72
2022/09/22 02:04:03;;;;;;;4.15;1.83;;;10.50;99.90;;;;;;5099861;28;20040;-73
2022/09/22 02:06:28;;;;;;;4.47;1.88;;;10.60;99.90;;;;;;5098636;28;20036;-72
2022/09/22 02:09:08;;;;;;;5.90;2.05;;;10.50;99.90;;;;;;5099424;28;20451;-72
2022/09/22 02:11:34;;;;;;;5.20;2.22;;;10.50;99.90;;;;;;5099742;28;20107;-72
2022/09/22 02:14:01;;;;;;;3.97;1.95;;;10.40;99.90;;;;;;5099556;28;20085;-73
2022/09/22 02:16:27;;;;;;;3.92;1.88;;;10.50;99.90;;;;;;5097828;28;20040;-72
2022/09/22 02:19:22;;;;;;;5.25;2.20;;;10.50;99.90;;;;;;5098775;28;20372;-72
2022/09/22 02:21:48;;;;;;;3.13;1.77;;;10.50;99.90;;;;;;5094848;28;20052;-72
2022/09/22 02:24:36;;;;;;;3.25;1.80;;;10.50;99.90;;;;;;5099470;28;20044;-72
2022/09/22 02:27:19;;;;;;;4.25;1.90;;;10.50;99.90;;;;;;5081174;28;20139;-72
2022/09/22 02:29:51;;;;;;;3.53;1.85;;;10.40;99.90;;;;;;5099392;28;20040;-72
2022/09/22 02:32:17;;;;;;;4.75;1.90;;;10.30;99.90;;;;;;5098256;28;20051;-72
2022/09/22 02:34:45;;;;;;;4.90;1.83;;;10.30;99.90;;;;;;5098227;28;20055;-72
2022/09/22 02:37:58;;;;;;;3.42;1.90;;;10.20;99.90;;;;;;5132022;27;20093;-72
2022/09/22 02:40:45;;;;;;;4.07;2.15;;;10.30;99.90;;;;;;5077360;28;20127;-72
2022/09/22 02:43:31;;;;;;;4.75;2.10;;;10.20;99.90;;;;;;5097463;28;20105;-72
2022/09/22 02:46:24;;;;;;;2.90;1.77;;;10.20;99.90;;;;;;5097149;28;20063;-72
2022/09/22 02:48:57;;;;;;;3.35;2.00;;;10.20;99.90;;;;;;5074549;28;20084;-72
2022/09/22 02:51:23;;;;;;;5.03;1.75;;;10.20;99.90;;;;;;5098430;28;20043;-72
2022/09/22 02:53:49;;;;;;;4.20;2.00;;;10.10;99.90;;;;;;5131433;27;20044;-72
2022/09/22 02:56:14;;;;;;;4.45;1.85;;;10.20;99.90;;;;;;5098714;28;20032;-72
2022/09/22 02:58:40;;;;;;;3.53;2.28;;;10.10;99.90;;;;;;5098292;28;20044;-72
2022/09/22 03:01:06;;;;;;;2.13;1.45;;;10.10;99.90;;;;;;5098734;28;20096;-72
2022/09/22 03:03:32;;;;;;;3.80;1.38;;;10.10;99.90;;;;;;5097403;28;20122;-72
2022/09/22 03:05:57;;;;;;;3.05;1.52;;;10.00;99.90;;;;;;5098389;28;20043;-72
2022/09/22 03:08:23;;;;;;;3.33;1.33;;;10.00;99.90;;;;;;5098550;28;20044;-73
2022/09/22 03:10:49;;;;;;;3.00;1.40;;;10.00;99.90;;;;;;5131433;27;20072;-73
2022/09/22 03:13:14;;;;;;;4.65;1.35;;;9.90;99.90;;;;;;5098422;28;20388;-73
2022/09/22 03:15:40;;;;;;;2.40;0.90;;;9.90;99.90;;;;;;5098444;28;20055;-73
2022/09/22 03:18:06;;;;;;;4.32;1.33;;;9.90;99.90;;;;;;5097907;28;20063;-73
2022/09/22 03:20:31;;;;;;;2.30;1.17;;;9.90;99.90;;;;;;5131105;27;20177;-73
2022/09/22 03:22:57;;;;;;;2.08;1.00;;;9.80;99.90;;;;;;5131092;27;20044;-72
2022/09/22 03:25:23;;;;;;;2.05;1.00;;;9.80;99.90;;;;;;5097967;28;20040;-73
2022/09/22 03:27:49;;;;;;;1.63;0.90;;;9.80;99.90;;;;;;5096887;28;20042;-73
2022/09/22 03:30:14;;;;;;;1.80;1.08;;;9.70;99.90;;;;;;5131161;27;20119;-72
2022/09/22 03:32:40;;;;;;;3.95;1.10;;;9.70;99.90;;;;;;5096700;28;20039;-72
2022/09/22 03:35:06;;;;;;;2.33;0.85;;;9.70;99.90;;;;;;5131150;27;20036;-73
2022/09/22 03:37:33;;;;;;;0.95;0.80;;;9.70;99.90;;;;;;5097526;28;20517;-73
2022/09/22 03:39:59;;;;;;;3.20;1.10;;;9.70;99.90;;;;;;5131076;27;20147;-73
2022/09/22 03:42:25;;;;;;;2.55;1.20;;;9.70;99.90;;;;;;5096620;28;20452;-73
2022/09/22 03:44:51;;;;;;;3.97;0.95;;;9.70;99.90;;;;;;5130581;27;20048;-72
2022/09/22 03:47:18;;;;;;;2.65;1.08;;;9.70;99.90;;;;;;5130531;27;20052;-73
2022/09/22 03:49:43;;;;;;;3.15;1.20;;;9.70;99.90;;;;;;5097533;28;20040;-72
2022/09/22 03:52:09;;;;;;;4.55;1.33;;;9.70;99.90;;;;;;5097478;28;20069;-72
2022/09/22 03:54:35;;;;;;;2.75;1.30;;;9.60;99.90;;;;;;5097384;28;20047;-72
2022/09/22 03:57:02;;;;;;;2.75;1.25;;;9.70;99.90;;;;;;5097843;28;20035;-72
2022/09/22 03:59:28;;;;;;;4.40;1.77;;;9.60;99.90;;;;;;5096595;28;20117;-72
2022/09/22 04:01:54;;;;;;;3.35;1.38;;;9.60;99.90;;;;;;5097281;28;20040;-72
2022/09/22 04:04:19;;;;;;;4.00;1.48;;;9.60;99.90;;;;;;5097517;28;20050;-73
2022/09/22 04:06:45;;;;;;;2.67;1.30;;;9.60;99.90;;;;;;5096187;28;20040;-72
2022/09/22 04:09:11;;;;;;;5.15;1.67;;;9.60;99.90;;;;;;5096347;28;20063;-73
2022/09/22 04:11:36;;;;;;;7.32;1.60;;;9.60;99.90;;;;;;5096332;28;20066;-72
2022/09/22 04:14:03;;;;;;;1.52;1.02;;;9.50;99.90;;;;;;5097050;28;20154;-73
2022/09/22 04:16:30;;;;;;;3.08;1.40;;;9.50;99.90;;;;;;5095868;28;20059;-73
2022/09/22 04:18:56;;;;;;;6.75;1.60;;;9.50;99.90;;;;;;5096120;28;20039;-73
2022/09/22 04:21:22;;;;;;;3.58;1.45;;;9.60;99.90;;;;;;5095564;28;20348;-73
2022/09/22 04:23:47;;;;;;;4.45;1.48;;;9.60;99.90;;;;;;5096941;28;20082;-72
2022/09/22 04:26:13;;;;;;;2.42;1.38;;;9.60;99.90;;;;;;5095885;28;20051;-72
2022/09/22 04:28:39;;;;;;;3.70;1.10;;;9.50;99.90;;;;;;5095675;28;20088;-72
2022/09/22 04:31:05;;;;;;;3.13;1.50;;;9.50;99.90;;;;;;5096041;28;20165;-72
2022/09/22 04:33:31;;;;;;;4.88;1.63;;;9.50;99.90;;;;;;5096848;28;20118;-72
2022/09/22 04:35:56;;;;;;;8.07;1.40;;;9.40;99.90;;;;;;5097218;28;20416;-72
2022/09/22 04:38:22;;;;;;;4.55;1.30;;;9.50;99.90;;;;;;5096080;28;20039;-73
2022/09/22 04:40:48;;;;;;;3.90;1.40;;;9.50;99.90;;;;;;5097046;28;20044;-72
2022/09/22 04:43:14;;;;;;;6.28;1.60;;;9.50;99.90;;;;;;5097010;28;20059;-73
2022/09/22 04:45:45;;;;;;;2.65;1.30;;;9.50;99.90;;;;;;5096479;28;20052;-72
2022/09/22 04:48:11;;;;;;;2.92;1.20;;;9.50;99.90;;;;;;5096933;28;20328;-72
2022/09/22 04:50:37;;;;;;;2.50;1.38;;;9.40;99.90;;;;;;5095554;28;20040;-73
2022/09/22 04:53:02;;;;;;;1.88;1.25;;;9.40;99.90;;;;;;5096811;28;20079;-72
2022/09/22 04:55:28;;;;;;;4.70;1.60;;;9.50;99.90;;;;;;5096874;28;20390;-72
2022/09/22 04:57:55;;;;;;;3.83;1.35;;;9.50;99.90;;;;;;5096830;28;20321;-72
2022/09/22 05:00:23;;;;;;;5.60;1.65;;;9.60;99.90;;;;;;5095769;28;20036;-72
2022/09/22 05:02:49;;;;;;;5.10;1.67;;;9.60;99.90;;;;;;5095479;28;20119;-72
2022/09/22 05:05:15;;;;;;;2.72;1.33;;;9.50;99.90;;;;;;5096761;28;20075;-73
2022/09/22 05:07:46;;;;;;;3.58;1.50;;;9.40;99.90;;;;;;5095499;28;20036;-72
2022/09/22 05:10:13;;;;;;;3.20;1.42;;;9.40;99.90;;;;;;5096756;28;20054;-73
2022/09/22 05:12:42;;;;;;;6.10;1.77;;;9.40;99.90;;;;;;5096646;28;20036;-73
2022/09/22 05:15:11;;;;;;;4.78;1.60;;;9.40;99.90;;;;;;5129587;28;20050;-73
2022/09/22 05:17:41;;;;;;;4.40;1.85;;;9.40;99.90;;;;;;5096302;28;20040;-73
2022/09/22 05:20:06;;;;;;;4.18;2.03;;;9.30;99.90;;;;;;5095351;28;20047;-72
2022/09/22 05:22:32;;;;;;;3.90;1.60;;;9.40;99.90;;;;;;5078666;28;20040;-73
2022/09/22 05:24:58;;;;;;;7.43;1.77;;;9.40;99.90;;;;;;5095019;28;20047;-72
2022/09/22 05:27:24;;;;;;;1.83;1.23;;;9.40;99.90;;;;;;5078497;28;20047;-72
2022/09/22 05:29:50;;;;;;;3.90;1.80;;;9.40;99.90;;;;;;5098253;28;20051;-72
2022/09/22 05:32:15;;;;;;;2.30;1.40;;;9.30;99.90;;;;;;5098819;28;20127;-73
2022/09/22 05:34:41;;;;;;;3.50;1.65;;;9.30;99.90;;;;;;5099863;28;20036;-73
2022/09/22 05:37:07;;;;;;;2.35;1.40;;;9.40;99.90;;;;;;5098765;28;20039;-72
2022/09/22 05:39:32;;;;;;;4.60;1.70;;;9.40;99.90;;;;;;5099146;28;20040;-72
2022/09/22 05:41:58;;;;;;;6.32;2.03;;;9.30;99.90;;;;;;5099962;28;20428;-72
2022/09/22 05:44:24;;;;;;;3.90;1.60;;;9.30;99.90;;;;;;5099957;28;20059;-73
2022/09/22 05:46:49;;;;;;;6.43;2.83;;;9.30;99.90;;;;;;5100181;28;20040;-73
2022/09/22 05:49:15;;;;;;;4.35;2.53;;;9.30;99.90;;;;;;5098348;28;20036;-73
2022/09/22 05:51:41;;;;;;;4.55;2.20;;;9.30;99.90;;;;;;5100087;28;20108;-72
2022/09/22 05:54:08;;;;;;;3.83;2.20;;;9.40;99.90;;;;;;5098808;28;20056;-72
2022/09/22 05:56:34;;;;;;;4.93;2.50;;;9.40;99.90;;;;;;5099674;28;20117;-72
2022/09/22 05:59:00;;;;;;;4.75;2.45;;;9.40;99.90;;;;;;5098942;28;20074;-73
2022/09/22 06:01:25;;;;;;;4.07;2.45;;;9.40;99.90;;;;;;5098663;28;20083;-72
2022/09/22 06:03:51;;;;;;;7.70;2.75;;;9.50;99.90;;;;;;5099519;28;20051;-72
2022/09/22 06:06:17;;;;;;;4.68;2.50;;;9.50;99.90;;;;;;5098794;28;20036;-72
2022/09/22 06:08:42;;;;;;;6.93;3.28;;;9.50;99.90;;;;;;5098899;28;20051;-72
2022/09/22 06:11:08;;;;;;;4.88;2.60;;;9.50;99.90;;;;;;5081525;28;20058;-72
2022/09/22 06:13:34;;;;;;;4.13;2.83;;;9.60;99.90;;;;;;5099603;28;20121;-72
2022/09/22 06:16:01;;;;;;;6.07;3.90;;;9.60;99.90;;;;;;5099691;28;20040;-73
2022/09/22 06:18:28;;;;;;;9.48;4.00;;;9.60;99.90;;;;;;5099179;28;20107;-73
2022/09/22 06:20:55;;;;;;;9.32;4.18;;;9.60;99.90;;;;;;5098460;28;20036;-73
2022/09/22 06:23:20;;;;;;;8.73;4.30;;;9.70;99.90;;;;;;5098727;28;20043;-73
2022/09/22 06:25:46;;;;;;;7.10;5.30;;;9.70;99.90;;;;;;5098061;28;20172;-73
2022/09/22 06:28:15;;;;;;;6.50;4.18;;;9.80;99.90;;;;;;5099378;28;20089;-73
2022/09/22 06:30:41;;;;;;;7.22;4.03;;;9.80;99.90;;;;;;5098060;28;20052;-72
2022/09/22 06:33:08;;;;;;;7.57;4.05;;;9.90;99.90;;;;;;5098196;28;20040;-72
2022/09/22 06:35:36;;;;;;;10.98;5.38;;;9.90;99.90;;;;;;5081048;28;20465;-72
2022/09/22 06:38:05;;;;;;;7.15;4.95;;;10.00;99.90;;;;;;5099203;28;20068;-72
2022/09/22 06:40:31;;;;;;;7.15;5.43;;;10.10;99.90;;;;;;5097749;28;20076;-72
2022/09/22 06:43:00;;;;;;;7.72;5.35;;;10.20;99.90;;;;;;5097649;28;20043;-73
2022/09/22 06:45:28;;;;;;;7.72;5.10;;;10.30;99.90;;;;;;5098765;28;20048;-73
2022/09/22 06:47:57;;;;;;;9.05;5.72;;;10.40;99.90;;;;;;5098618;28;20032;-72
2022/09/22 06:50:25;;;;;;;8.00;5.57;;;10.60;99.90;;;;;;5081016;28;20043;-72
2022/09/22 06:52:55;;;;;;;8.25;4.65;;;10.70;99.90;;;;;;5097572;28;20077;-72
2022/09/22 06:55:21;;;;;;;9.13;5.80;;;10.80;99.90;;;;;;5097604;28;20044;-72
2022/09/22 06:57:46;;;;;;;10.43;5.25;;;10.90;99.90;;;;;;5097528;28;20040;-73
2022/09/22 07:00:14;;;;;;;8.93;5.53;;;10.90;99.90;;;;;;5098752;28;20044;-73
2022/09/22 07:02:39;;;;;;;10.15;5.80;;;11.00;99.90;;;;;;5098737;28;20329;-73
2022/09/22 07:05:05;;;;;;;8.57;5.97;;;11.00;99.90;;;;;;5098654;28;20044;-72
2022/09/22 07:07:31;;;;;;;10.07;5.55;;;11.10;99.90;;;;;;5097543;28;20418;-72
2022/09/22 07:09:57;;;;;;;8.35;5.55;;;11.20;99.90;;;;;;5097509;28;20040;-73
2022/09/22 07:12:24;;;;;;;8.40;6.07;;;11.30;99.90;;;;;;5131606;27;20050;-73
2022/09/22 07:14:51;;;;;;;11.85;6.88;;;11.40;99.90;;;;;;5098441;28;20040;-73
2022/09/22 07:17:20;;;;;;;9.82;5.78;;;11.60;99.90;;;;;;5098045;28;20040;-73
2022/09/22 07:19:46;;;;;;;13.73;5.85;;;11.70;99.90;;;;;;5098385;28;20383;-73
2022/09/22 07:22:14;;;;;;;11.48;6.35;;;11.80;99.90;;;;;;5098382;28;20044;-73
2022/09/22 07:24:41;;;;;;;16.15;7.57;;;11.90;99.90;;;;;;5098295;28;20364;-73
2022/09/22 07:27:09;;;;;;;10.02;6.63;;;12.00;99.90;;;;;;5096951;28;20036;-71
2022/09/22 07:29:35;;;;;;;13.48;7.40;;;12.10;99.90;;;;;;5096926;28;20048;-80
2022/09/22 07:32:02;;;;;;;11.02;6.65;;;12.20;99.90;;;;;;5097892;28;20075;-71
2022/09/22 07:34:28;;;;;;;10.85;7.05;;;12.30;99.90;;;;;;5098040;28;20040;-72
2022/09/22 07:36:54;;;;;;;9.75;6.63;;;12.40;99.90;;;;;;5097802;28;20039;-71
2022/09/22 07:39:19;;;;;;;13.30;7.25;;;12.50;99.90;;;;;;5098090;28;20161;-71
2022/09/22 07:41:46;;;;;;;14.40;6.80;;;12.60;99.90;;;;;;5097644;28;20039;-71
2022/09/22 07:46:59;;;;;;;14.98;6.80;;;12.80;99.90;;;;;;5097587;28;20043;-71
2022/09/22 07:49:25;;;;;;;11.00;6.63;;;12.90;99.90;;;;;;5097222;28;20114;-71
2022/09/22 07:51:54;;;;;;;10.50;6.20;;;12.90;99.90;;;;;;5099601;28;20074;-71
2022/09/22 07:54:21;;;;;;;12.02;7.28;;;12.90;99.90;;;;;;5098564;28;20047;-72
2022/09/22 07:56:48;;;;;;;11.05;7.10;;;13.10;99.90;;;;;;5097396;28;20432;-71
2022/09/22 07:59:15;;;;;;;10.15;7.25;;;13.20;99.90;;;;;;5097686;28;20040;-71
2022/09/22 08:01:46;;;;;;;17.27;7.53;;;13.30;99.90;;;;;;5097622;28;20036;-70
2022/09/22 08:04:17;;;;;;;10.27;6.25;;;13.40;99.90;;;;;;5097334;28;20048;-71
2022/09/22 08:06:44;;;;;;;10.45;6.13;;;13.60;99.90;;;;;;5097503;28;20089;-71
2022/09/22 08:09:12;;;;;;;11.10;7.25;;;13.70;99.90;;;;;;5097167;28;20421;-70
2022/09/22 08:11:38;;;;;;;8.55;6.55;;;13.80;99.90;;;;;;5097417;28;20040;-71
2022/09/22 08:14:06;;;;;;;11.80;7.35;;;13.90;99.90;;;;;;5130513;27;20047;-71
2022/09/22 08:16:34;;;;;;;10.27;6.68;;;14.00;99.90;;;;;;5097378;28;20055;-72
2022/09/22 08:19:10;;;;;;;12.32;7.20;;;14.00;99.90;;;;;;5096967;28;20036;-71
2022/09/22 08:21:37;;;;;;;11.43;7.43;;;14.10;99.90;;;;;;5097094;28;20416;-71
2022/09/22 08:24:05;;;;;;;11.30;6.63;;;14.10;99.90;;;;;;5097028;28;20127;-71
2022/09/22 08:26:31;;;;;;;14.00;6.70;;;14.00;99.90;;;;;;5096208;28;20063;-70
2022/09/22 08:28:57;;;;;;;8.88;5.90;;;14.20;99.90;;;;;;5097165;28;20425;-70
2022/09/22 08:31:25;;;;;;;11.50;6.10;;;14.20;99.90;;;;;;5097190;28;20115;-71
2022/09/22 08:33:52;;;;;;;10.77;5.90;;;14.40;99.90;;;;;;5097057;28;20123;-71
2022/09/22 08:36:19;;;;;;;13.40;6.05;;;14.50;99.90;;;;;;5096186;28;20043;-71
2022/09/22 08:38:48;;;;;;;8.25;5.43;;;14.70;99.90;;;;;;5097091;28;20310;-70
2022/09/22 08:41:37;;;;;;;11.70;5.57;;;14.90;99.90;;;;;;5096727;28;20039;-70
2022/09/22 08:44:27;;;;;;;11.02;5.07;;;15.10;99.90;;;;;;5096779;28;20062;-71
2022/09/22 08:46:57;;;;;;;10.90;5.43;;;15.20;99.90;;;;;;5095644;28;20055;-70
2022/09/22 08:52:24;;;;;;;12.02;4.80;;;15.40;99.90;;;;;;5096917;28;20048;-71
2022/09/22 08:54:50;;;;;;;7.72;4.10;;;15.40;99.90;;;;;;5096810;28;20083;-70
2022/09/22 08:57:35;;;;;;;8.80;3.58;;;15.50;99.90;;;;;;5096900;28;20063;-87
2022/09/22 09:00:04;;;;;;;8.80;3.47;;;15.60;99.90;;;;;;5095599;28;20443;-83
2022/09/22 09:02:37;;;;;;;6.00;3.60;;;15.50;99.90;;;;;;5078952;28;20393;-83
2022/09/22 09:05:27;;;;;;;7.47;3.00;;;15.50;99.90;;;;;;5081032;28;20440;-82
2022/09/22 09:08:01;;;;;;;8.48;3.55;;;15.50;99.90;;;;;;5101235;28;20047;-83
2022/09/22 09:11:25;;;;;;;7.93;2.80;;;15.60;99.90;;;;;;5099634;28;20044;-83
2022/09/22 09:14:06;;;;;;;7.70;3.15;;;15.70;99.90;;;;;;5025155;28;20041;-83
2022/09/22 09:16:40;;;;;;;9.25;2.85;;;15.60;99.90;;;;;;5025200;28;20041;-83
2022/09/22 09:19:38;;;;;;;7.05;2.80;;;15.50;99.90;;;;;;5085060;28;20089;-85
2022/09/22 09:22:12;;;;;;;5.50;2.50;;;15.60;99.90;;;;;;5082473;28;20036;-85
2022/09/22 09:24:48;;;;;;;6.20;2.60;;;15.70;99.90;;;;;;5082691;28;20326;-85
2022/09/22 09:27:20;;;;;;;4.57;2.42;;;15.90;99.90;;;;;;5116450;28;20130;-87
2022/09/22 09:30:06;;;;;;;7.60;2.40;;;15.90;99.90;;;;;;5116494;28;20127;-87
2022/09/22 09:32:41;;;;;;;6.63;2.35;;;16.00;99.90;;;;;;5082765;28;20403;-86
2022/09/22 09:35:34;;;;;;;5.80;2.25;;;16.00;99.80;;;;;;5082190;28;20040;-84
2022/09/22 09:38:01;;;;;;;6.22;2.40;;;16.20;99.90;;;;;;5096058;28;20051;-84
2022/09/22 09:40:27;;;;;;;4.75;2.35;;;16.40;99.90;;;;;;5082142;28;20042;-83
2022/09/22 09:43:05;;;;;;;9.43;2.40;;;16.30;99.40;;;;;;5099020;28;20040;-86
2022/09/22 09:45:50;;;;;;;6.65;2.20;;;16.40;99.20;;;;;;5082049;28;20048;-87
2022/09/22 09:48:47;;;;;;;5.05;2.28;;;16.60;99.40;;;;;;5098799;28;20040;-86
2022/09/22 09:51:13;;;;;;;8.05;2.00;;;16.70;98.50;;;;;;5133058;27;20040;-85
2022/09/22 09:53:46;;;;;;;8.45;2.03;;;16.90;99.40;;;;;;5081827;28;20146;-85
2022/09/22 09:56:27;;;;;;;6.30;1.95;;;17.10;99.20;;;;;;5099030;28;20074;-85
2022/09/22 10:01:51;;;;;;;3.90;1.70;;;17.30;98.90;;;;;;5100287;28;20125;-87
2022/09/22 10:04:36;;;;;;;9.93;2.13;;;17.50;98.50;;;;;;5098645;28;20051;-85
2022/09/22 10:07:39;;;;;;;6.18;2.50;;;17.70;98.60;;;;;;5082976;28;20059;-70
2022/09/22 10:10:29;;;;;;;5.65;2.08;;;17.80;97.60;;;;;;5099471;28;20440;-70
2022/09/22 10:13:04;;;;;;;5.78;2.10;;;18.30;98.00;;;;;;5098953;28;20054;-70
2022/09/22 10:15:32;;;;;;;6.63;2.17;;;18.40;97.70;;;;;;5098926;28;20032;-68
2022/09/22 10:17:58;;;;;;;2.67;1.65;;;18.70;97.60;;;;;;5097890;28;20048;-70
2022/09/22 10:20:30;;;;;;;7.80;1.98;;;19.00;97.90;;;;;;5081650;28;20097;-72
2022/09/22 10:23:22;;;;;;;6.03;2.47;;;19.50;97.80;;;;;;5099304;28;20452;-71
2022/09/22 10:25:51;;;;;;;5.13;2.13;;;19.90;96.70;;;;;;5099551;28;20067;-71
2022/09/22 10:28:20;;;;;;;7.35;1.92;;;20.10;97.50;;;;;;5099394;28;20040;-71
2022/09/22 10:31:02;;;;;;;5.88;2.05;;;19.90;96.80;;;;;;5081153;28;20032;-72
2022/09/22 10:33:28;;;;;;;5.90;1.80;;;19.90;97.30;;;;;;5097960;28;20087;-72
2022/09/22 10:36:01;;;;;;;5.15;2.35;;;19.90;96.70;;;;;;5099032;28;20494;-72
2022/09/22 10:38:29;;;;;;;5.63;2.30;;;20.00;97.30;;;;;;5098342;28;20313;-78
2022/09/22 10:41:06;;;;;;;6.75;2.03;;;20.00;96.40;;;;;;5098107;28;20441;-75
2022/09/22 10:43:38;;;;;;;5.13;2.53;;;19.90;96.90;;;;;;5115185;28;20070;-74
2022/09/22 10:46:19;;;;;;;7.93;2.92;;;19.90;96.60;;;;;;5099087;28;20084;-75
2022/09/22 10:49:23;;;;;;;7.20;3.03;;;19.80;96.80;;;;;;5098818;28;20097;-75
2022/09/22 10:52:08;;;;;;;6.38;2.00;;;19.80;96.00;;;;;;5082895;28;20083;-74
2022/09/22 10:55:12;;;;;;;6.50;2.28;;;19.80;96.10;;;;;;5098624;28;20061;-75
2022/09/22 10:58:03;;;;;;;3.47;1.70;;;19.70;96.30;;;;;;5098217;28;20341;-74
2022/09/22 11:00:38;;;;;;;7.10;2.00;;;19.90;96.40;;;;;;5098481;28;20040;-74
2022/09/22 11:03:31;;;;;;;6.20;2.25;;;20.00;95.80;;;;;;5098836;28;20040;-74
2022/09/22 11:12:26;;;;;;;4.60;1.92;;;19.90;95.70;;;;;;5098237;28;20486;-75
2022/09/22 11:15:03;;;;;;;5.25;1.90;;;19.90;95.80;;;;;;5097148;28;20048;-75
2022/09/22 11:17:38;;;;;;;7.47;1.75;;;19.80;96.00;;;;;;5098523;28;20036;-82
2022/09/22 11:20:35;;;;;;;6.07;2.28;;;19.80;95.70;;;;;;5100419;28;20032;-76
2022/09/22 11:23:38;;;;;;;8.10;1.85;;;20.20;95.50;;;;;;5098181;28;20441;-71
2022/09/22 11:26:27;;;;;;;8.55;1.92;;;21.10;95.90;;;;;;5098251;28;20039;-71
2022/09/22 11:29:25;;;;;;;7.47;1.45;;;21.60;95.30;;;;;;5098138;28;20071;-71
2022/09/22 11:32:03;;;;;;;5.15;1.67;;;22.30;95.40;;;;;;5098240;28;20039;-72
2022/09/22 11:35:01;;;;;;;6.32;2.10;;;21.90;95.10;;;;;;5098664;28;20044;-71
2022/09/22 11:37:49;;;;;;;5.30;2.38;;;21.70;95.10;;;;;;5098101;28;20036;-72
2022/09/22 11:40:33;;;;;;;7.40;2.95;;;21.80;94.70;;;;;;5097220;28;20067;-92
2022/09/22 11:43:16;;;;;;;9.70;3.60;;;21.50;94.80;;;;;;5096731;28;20476;-70
2022/09/22 11:46:05;;;;;;;6.95;3.90;;;21.00;95.40;;;;;;5097560;28;20090;-71
2022/09/22 11:49:10;;;;;;;7.35;3.20;;;20.60;94.90;;;;;;5097267;28;20039;-71
2022/09/22 11:52:06;;;;;;;9.00;3.53;;;20.70;95.40;;;;;;5097244;28;20429;-71
2022/09/22 11:54:57;;;;;;;7.25;3.05;;;21.00;95.40;;;;;;5097737;28;20048;-71
2022/09/22 11:57:30;;;;;;;6.50;3.50;;;21.00;95.90;;;;;;5097454;28;20164;-71
2022/09/22 12:00:02;;;;;;;8.55;4.30;;;21.10;96.00;;;;;;5097725;28;20044;-71
2022/09/22 12:02:38;;;;;;;8.00;3.35;;;21.20;95.40;;;;;;5097715;28;20032;-72
2022/09/22 12:05:14;;;;;;;;;;;21.40;95.70;;;;;;5098189;28;20043;-72
2022/09/22 12:07:58;;;;;;;9.88;4.10;;;21.70;95.60;;;;;;5097607;28;20322;-71
2022/09/22 12:10:44;;;;;;;7.68;4.18;;;22.20;95.60;;;;;;5097552;28;20058;-72
2022/09/22 12:13:20;;;;;;;8.68;3.80;;;22.00;94.20;;;;;;5097003;28;20052;-72
2022/09/22 12:16:41;;;;;;;8.38;4.10;;;22.10;95.00;;;;;;5097185;28;20036;-72
2022/09/22 12:19:23;;;;;;;9.43;4.38;;;22.10;95.10;;;;;;5054543;28;20074;-72
2022/09/22 12:22:09;;;;;;;7.22;3.72;;;22.30;94.70;;;;;;5054929;28;20037;-71
2022/09/22 12:24:35;;;;;;;6.03;3.70;;;22.00;94.10;;;;;;5090088;28;20105;-71
2022/09/22 12:27:22;;;;;;;11.45;3.47;;;21.60;94.40;;;;;;5097297;28;20035;-71
2022/09/22 12:29:55;;;;;;;;;;;21.50;95.00;;;;;;5097813;28;20040;-71
2022/09/22 12:32:35;;;;;;;8.98;3.40;;;21.70;95.10;;;;;;5096883;28;19972;-72
2022/09/22 12:35:02;;;;;;;7.25;3.53;;;22.10;94.40;;;;;;5097147;28;20120;-71
2022/09/22 12:37:35;;;;;;;6.85;3.47;;;22.80;94.40;;;;;;5097113;28;20032;-71
2022/09/22 12:40:26;;;;;;;8.65;2.85;;;23.10;94.40;;;;;;5096564;28;20044;-71
2022/09/22 12:42:53;;;;;;;6.57;2.97;;;23.60;95.00;;;;;;5097063;28;20036;-72
2022/09/22 12:45:22;;;;;;;7.80;2.40;;;24.20;94.10;;;;;;5096644;28;20067;-71
2022/09/22 12:47:50;;;;;;;5.78;2.80;;;24.40;93.90;;;;;;5096641;28;20043;-72
2022/09/22 12:50:22;;;;;;;6.50;2.53;;;24.30;93.80;;;;;;5130108;27;20040;-72
2022/09/22 12:52:49;;;;;;;6.88;2.80;;;24.40;94.10;;;;;;5095804;28;20439;-72
2022/09/22 12:55:28;;;;;;;9.05;3.10;;;24.10;93.90;;;;;;5096839;28;20040;-71
2022/09/22 12:58:18;;;;;;;5.70;2.70;;;23.60;94.00;;;;;;5096911;28;20036;-72
2022/09/22 13:00:44;;;;;;;7.32;3.42;;;23.50;94.10;;;;;;5096914;28;20035;-72
2022/09/22 13:03:25;;;;;;;5.07;2.63;;;23.50;94.30;;;;;;5096568;28;20390;-71
2022/09/22 13:05:54;;;;;;;8.82;2.97;;;23.30;93.90;;;;;;5096795;28;20057;-72
2022/09/22 13:08:29;;;;;;;5.13;2.70;;;23.50;93.60;;;;;;5096812;28;20097;-72
2022/09/22 13:11:01;;;;;;;7.72;2.40;;;23.30;94.70;;;;;;5096736;28;20047;-72
2022/09/22 13:13:43;;;;;;;8.10;2.83;;;23.10;94.30;;;;;;5096700;28;20168;-72
2022/09/22 13:16:15;;;;;;;5.70;3.22;;;23.30;94.60;;;;;;5096653;28;20444;-72
2022/09/22 13:18:44;;;;;;;5.28;2.90;;;23.20;94.20;;;;;;5095002;28;20044;-72
2022/09/22 13:21:12;;;;;;;9.27;3.65;;;22.80;94.30;;;;;;5096665;28;20040;-72
2022/09/22 13:23:50;;;;;;;6.13;3.20;;;22.70;93.90;;;;;;5096629;28;20123;-72
2022/09/22 13:26:18;;;;;;;10.65;3.65;;;22.60;94.30;;;;;;5096597;28;20119;-72
2022/09/22 13:28:57;;;;;;;6.97;3.65;;;22.50;94.40;;;;;;5095481;28;20052;-72
2022/09/22 13:31:22;;;;;;;8.48;3.53;;;22.20;94.50;;;;;;5095321;28;20122;-72
2022/09/22 13:33:48;;;;;;;10.65;3.78;;;21.90;93.90;;;;;;5096437;28;20115;-85